sensor_id;sensor_type;location;lat;lon;timestamp;pressure;altitude;pressure_sealevel;temperature;humidity
67697;BME280;54486;51.442;6.778;2023-05-23T00:01:03;101464.94;;;15.81;94.13
67697;BME280;54486;51.442;6.778;2023-05-23T00:03:34;101478.09;;;15.82;94.59
67697;BME280;54486;51.442;6.778;2023-05-23T00:06:01;101477.22;;;15.82;94.05
67697;BME280;54486;51.442;6.778;2023-05-23T00:08:28;101467.56;;;15.82;95.05
67697;BME280;54486;51.442;6.778;2023-05-23T00:10:55;101468.34;;;15.86;94.57
67697;BME280;54486;51.442;6.778;2023-05-23T00:13:22;101480.69;;;15.84;94.29
67697;BME280;54486;51.442;6.778;2023-05-23T00:15:49;101465.06;;;15.75;94.20
67697;BME280;54486;51.442;6.778;2023-05-23T00:18:17;101476.53;;;15.71;94.55
67697;BME280;54486;51.442;6.778;2023-05-23T00:20:44;101470.31;;;15.75;95.37
67697;BME280;54486;51.442;6.778;2023-05-23T00:23:12;101469.38;;;15.77;94.93
67697;BME280;54486;51.442;6.778;2023-05-23T00:25:45;101472.06;;;15.76;94.68
67697;BME280;54486;51.442;6.778;2023-05-23T00:28:19;101470.25;;;15.78;96.02
67697;BME280;54486;51.442;6.778;2023-05-23T00:30:47;101466.81;;;15.76;94.69
67697;BME280;54486;51.442;6.778;2023-05-23T00:33:17;101470.31;;;15.75;94.32
67697;BME280;54486;51.442;6.778;2023-05-23T00:35:48;101479.09;;;15.74;94.57
67697;BME280;54486;51.442;6.778;2023-05-23T00:38:16;101476.47;;;15.75;94.71
67697;BME280;54486;51.442;6.778;2023-05-23T00:40:43;101479.09;;;15.74;95.17
67697;BME280;54486;51.442;6.778;2023-05-23T00:43:10;101480.91;;;15.72;94.71
67697;BME280;54486;51.442;6.778;2023-05-23T00:45:37;101487.84;;;15.76;94.82
67697;BME280;54486;51.442;6.778;2023-05-23T00:48:06;101485.22;;;15.76;94.31
67697;BME280;54486;51.442;6.778;2023-05-23T00:50:34;101473.72;;;15.80;94.89
67697;BME280;54486;51.442;6.778;2023-05-23T00:53:02;101482.59;;;15.76;94.24
67697;BME280;54486;51.442;6.778;2023-05-23T00:55:29;101473.84;;;15.74;94.86
67697;BME280;54486;51.442;6.778;2023-05-23T00:57:57;101473.84;;;15.74;95.40
67697;BME280;54486;51.442;6.778;2023-05-23T01:00:25;101480.84;;;15.75;95.39
67697;BME280;54486;51.442;6.778;2023-05-23T01:02:53;101482.59;;;15.76;94.87
67697;BME280;54486;51.442;6.778;2023-05-23T01:05:21;101480.84;;;15.75;95.43
67697;BME280;54486;51.442;6.778;2023-05-23T01:07:49;101477.38;;;15.73;95.45
67697;BME280;54486;51.442;6.778;2023-05-23T01:10:22;101477.41;;;15.70;94.65
67697;BME280;54486;51.442;6.778;2023-05-23T01:13:20;101480.97;;;15.69;95.50
67697;BME280;54486;51.442;6.778;2023-05-23T01:16:06;101473.88;;;15.71;95.17
67697;BME280;54486;51.442;6.778;2023-05-23T01:18:55;101480.09;;;15.67;94.84
67697;BME280;54486;51.442;6.778;2023-05-23T01:21:28;101477.41;;;15.70;94.92
67697;BME280;54486;51.442;6.778;2023-05-23T01:27:00;101481.84;;;15.68;93.63
67697;BME280;54486;51.442;6.778;2023-05-23T01:29:37;101480.91;;;15.72;94.12
67697;BME280;54486;51.442;6.778;2023-05-23T01:32:06;101487.06;;;15.71;93.58
67697;BME280;54486;51.442;6.778;2023-05-23T01:34:38;101483.59;;;15.69;94.08
67697;BME280;54486;51.442;6.778;2023-05-23T01:37:10;101483.53;;;15.70;93.87
67697;BME280;54486;51.442;6.778;2023-05-23T01:39:41;101489.69;;;15.71;93.58
67697;BME280;54486;51.442;6.778;2023-05-23T01:42:08;101488.84;;;15.69;93.65
67697;BME280;54486;51.442;6.778;2023-05-23T01:44:39;101490.63;;;15.67;94.00
67697;BME280;54486;51.442;6.778;2023-05-23T01:47:08;101489.72;;;15.68;94.41
67697;BME280;54486;51.442;6.778;2023-05-23T01:49:37;101493.25;;;15.67;94.84
67697;BME280;54486;51.442;6.778;2023-05-23T01:52:06;101481.94;;;15.63;94.57
67697;BME280;54486;51.442;6.778;2023-05-23T01:54:37;101482.78;;;15.64;94.44
67697;BME280;54486;51.442;6.778;2023-05-23T01:57:05;101493.25;;;15.67;94.39
67697;BME280;54486;51.442;6.778;2023-05-23T01:59:33;101492.41;;;15.65;94.89
67697;BME280;54486;51.442;6.778;2023-05-23T02:02:00;101491.59;;;15.63;94.85
67697;BME280;54486;51.442;6.778;2023-05-23T02:04:27;101497.72;;;15.62;94.38
67697;BME280;54486;51.442;6.778;2023-05-23T02:06:55;101506.47;;;15.64;94.52
67697;BME280;54486;51.442;6.778;2023-05-23T02:09:22;101500.31;;;15.65;94.81
67697;BME280;54486;51.442;6.778;2023-05-23T02:11:49;101506.47;;;15.64;95.01
67697;BME280;54486;51.442;6.778;2023-05-23T02:14:16;101511.75;;;15.62;94.57
67697;BME280;54486;51.442;6.778;2023-05-23T02:16:45;101503.81;;;15.64;95.20
67697;BME280;54486;51.442;6.778;2023-05-23T02:19:12;101500.31;;;15.65;95.05
67697;BME280;54486;51.442;6.778;2023-05-23T02:21:39;101503.81;;;15.64;94.93
67697;BME280;54486;51.442;6.778;2023-05-23T02:24:06;101500.38;;;15.62;94.59
67697;BME280;54486;51.442;6.778;2023-05-23T02:26:34;101495.09;;;15.62;95.01
67697;BME280;54486;51.442;6.778;2023-05-23T02:29:01;101505.63;;;15.62;95.05
67697;BME280;54486;51.442;6.778;2023-05-23T02:31:29;101505.69;;;15.59;94.58
67697;BME280;54486;51.442;6.778;2023-05-23T02:33:57;101505.63;;;15.62;95.52
67697;BME280;54486;51.442;6.778;2023-05-23T02:36:25;101522.28;;;15.62;95.17
67697;BME280;54486;51.442;6.778;2023-05-23T02:38:52;101509.13;;;15.61;94.21
67697;BME280;54486;51.442;6.778;2023-05-23T02:41:19;101516.19;;;15.59;94.84
67697;BME280;54486;51.442;6.778;2023-05-23T02:43:47;101520.59;;;15.58;94.53
67697;BME280;54486;51.442;6.778;2023-05-23T02:46:15;101529.47;;;15.53;95.13
67697;BME280;54486;51.442;6.778;2023-05-23T02:48:42;101523.31;;;15.54;96.13
67697;BME280;54486;51.442;6.778;2023-05-23T02:51:10;101527.66;;;15.55;96.29
67697;BME280;54486;51.442;6.778;2023-05-23T02:53:39;101530.28;;;15.55;96.87
67697;BME280;54486;51.442;6.778;2023-05-23T02:56:07;101525.94;;;15.52;97.64
67697;BME280;54486;51.442;6.778;2023-05-23T02:58:34;101520.75;;;15.45;96.94
67697;BME280;54486;51.442;6.778;2023-05-23T03:01:02;101520.75;;;15.46;97.20
67697;BME280;54486;51.442;6.778;2023-05-23T03:03:32;101522.56;;;15.43;97.55
67697;BME280;54486;51.442;6.778;2023-05-23T03:06:01;101529.50;;;15.48;97.95
67697;BME280;54486;51.442;6.778;2023-05-23T03:08:29;101518.13;;;15.48;98.48
67697;BME280;54486;51.442;6.778;2023-05-23T03:10:56;101522.50;;;15.49;98.08
67697;BME280;54486;51.442;6.778;2023-05-23T03:13:24;101517.22;;;15.50;96.29
67697;BME280;54486;51.442;6.778;2023-05-23T03:15:51;101521.56;;;15.53;95.49
67697;BME280;54486;51.442;6.778;2023-05-23T03:18:18;101517.91;;;15.63;93.05
67697;BME280;54486;51.442;6.778;2023-05-23T03:20:45;101521.56;;;15.53;93.54
67697;BME280;54486;51.442;6.778;2023-05-23T03:23:12;101527.75;;;15.50;94.26
67697;BME280;54486;51.442;6.778;2023-05-23T03:25:39;101530.38;;;15.49;93.81
67697;BME280;54486;51.442;6.778;2023-05-23T03:28:07;101529.56;;;15.44;94.02
67697;BME280;54486;51.442;6.778;2023-05-23T03:30:34;101536.59;;;15.43;94.09
67697;BME280;54486;51.442;6.778;2023-05-23T03:33:01;101541.88;;;15.40;94.31
67697;BME280;54486;51.442;6.778;2023-05-23T03:35:29;101539.31;;;15.35;94.70
67697;BME280;54486;51.442;6.778;2023-05-23T03:37:56;101544.63;;;15.32;94.63
67697;BME280;54486;51.442;6.778;2023-05-23T03:40:23;101542.91;;;15.28;95.14
67697;BME280;54486;51.442;6.778;2023-05-23T03:43:06;101549.09;;;15.26;95.82
67697;BME280;54486;51.442;6.778;2023-05-23T03:45:34;101553.44;;;15.28;96.64
67697;BME280;54486;51.442;6.778;2023-05-23T03:48:01;101558.81;;;15.19;96.24
67697;BME280;54486;51.442;6.778;2023-05-23T03:50:28;101556.28;;;15.15;96.23
67697;BME280;54486;51.442;6.778;2023-05-23T03:52:56;101548.34;;;15.16;96.54
67697;BME280;54486;51.442;6.778;2023-05-23T03:55:23;101564.09;;;15.19;96.56
67697;BME280;54486;51.442;6.778;2023-05-23T03:57:51;101562.31;;;15.21;96.62
67697;BME280;54486;51.442;6.778;2023-05-23T04:00:18;101557.94;;;15.22;96.66
67697;BME280;54486;51.442;6.778;2023-05-23T04:02:45;101568.47;;;15.22;96.48
67697;BME280;54486;51.442;6.778;2023-05-23T04:05:13;101564.97;;;15.20;96.19
67697;BME280;54486;51.442;6.778;2023-05-23T04:07:40;101567.59;;;15.21;97.21
67697;BME280;54486;51.442;6.778;2023-05-23T04:10:08;101574.56;;;15.22;96.45
67697;BME280;54486;51.442;6.778;2023-05-23T04:12:35;101571.06;;;15.23;97.00
67697;BME280;54486;51.442;6.778;2023-05-23T04:15:03;101581.53;;;15.26;97.06
67697;BME280;54486;51.442;6.778;2023-05-23T04:17:30;101571.00;;;15.26;97.28
67697;BME280;54486;51.442;6.778;2023-05-23T04:20:06;101572.75;;;15.27;96.73
67697;BME280;54486;51.442;6.778;2023-05-23T04:22:35;101582.41;;;15.27;97.10
67697;BME280;54486;51.442;6.778;2023-05-23T04:25:03;101583.31;;;15.24;97.64
67697;BME280;54486;51.442;6.778;2023-05-23T04:27:30;101583.38;;;15.21;98.13
67697;BME280;54486;51.442;6.778;2023-05-23T04:29:57;101578.09;;;15.20;98.55
67697;BME280;54486;51.442;6.778;2023-05-23T04:32:26;101590.34;;;15.22;98.58
67697;BME280;54486;51.442;6.778;2023-05-23T04:34:54;101593.00;;;15.21;98.35
67697;BME280;54486;51.442;6.778;2023-05-23T04:37:22;101595.59;;;15.22;98.87
67697;BME280;54486;51.442;6.778;2023-05-23T04:39:52;101594.72;;;15.23;98.64
67697;BME280;54486;51.442;6.778;2023-05-23T04:42:19;101588.56;;;15.24;98.85
67697;BME280;54486;51.442;6.778;2023-05-23T04:44:50;101593.78;;;15.27;99.12
67697;BME280;54486;51.442;6.778;2023-05-23T04:47:19;101590.25;;;15.28;99.08
67697;BME280;54486;51.442;6.778;2023-05-23T04:49:46;101594.66;;;15.26;98.48
67697;BME280;54486;51.442;6.778;2023-05-23T04:52:13;101595.56;;;15.25;98.43
67697;BME280;54486;51.442;6.778;2023-05-23T04:54:40;101592.97;;;15.22;98.24
67697;BME280;54486;51.442;6.778;2023-05-23T04:57:11;101588.63;;;15.21;98.76
67697;BME280;54486;51.442;6.778;2023-05-23T04:59:38;101602.53;;;15.29;100.00
67697;BME280;54486;51.442;6.778;2023-05-23T05:02:05;101593.78;;;15.27;100.00
67697;BME280;54486;51.442;6.778;2023-05-23T05:04:33;101599.06;;;15.27;99.87
67697;BME280;54486;51.442;6.778;2023-05-23T05:07:00;101607.06;;;15.18;100.00
67697;BME280;54486;51.442;6.778;2023-05-23T05:09:29;101599.25;;;15.12;100.00
67697;BME280;54486;51.442;6.778;2023-05-23T05:11:57;101608.06;;;15.08;100.00
67697;BME280;54486;51.442;6.778;2023-05-23T05:14:25;101592.28;;;15.08;100.00
67697;BME280;54486;51.442;6.778;2023-05-23T05:16:53;101617.66;;;15.11;100.00
67697;BME280;54486;51.442;6.778;2023-05-23T05:19:23;101616.84;;;15.07;100.00
67697;BME280;54486;51.442;6.778;2023-05-23T05:21:51;101619.47;;;15.07;99.84
67697;BME280;54486;51.442;6.778;2023-05-23T05:24:18;101633.44;;;15.11;99.15
67697;BME280;54486;51.442;6.778;2023-05-23T05:26:47;101621.25;;;15.05;99.17
67697;BME280;54486;51.442;6.778;2023-05-23T05:29:14;101623.81;;;15.11;100.00
67697;BME280;54486;51.442;6.778;2023-05-23T05:31:41;101625.47;;;15.18;99.02
67697;BME280;54486;51.442;6.778;2023-05-23T05:34:11;101638.63;;;15.17;98.87
67697;BME280;54486;51.442;6.778;2023-05-23T05:36:39;101628.97;;;15.17;98.66
67697;BME280;54486;51.442;6.778;2023-05-23T05:39:11;101634.19;;;15.20;98.72
67697;BME280;54486;51.442;6.778;2023-05-23T05:41:40;101640.38;;;15.18;97.98
67697;BME280;54486;51.442;6.778;2023-05-23T05:44:08;101644.66;;;15.23;96.95
67697;BME280;54486;51.442;6.778;2023-05-23T05:46:35;101653.47;;;15.19;96.61
67697;BME280;54486;51.442;6.778;2023-05-23T05:49:05;101641.25;;;15.18;97.00
67697;BME280;54486;51.442;6.778;2023-05-23T05:51:32;101658.69;;;15.22;97.33
67697;BME280;54486;51.442;6.778;2023-05-23T05:53:59;101658.69;;;15.22;97.25
67697;BME280;54486;51.442;6.778;2023-05-23T05:56:26;101662.28;;;15.18;96.07
67697;BME280;54486;51.442;6.778;2023-05-23T05:58:53;101662.41;;;15.06;96.24
67697;BME280;54486;51.442;6.778;2023-05-23T06:01:20;101663.25;;;15.10;96.85
67697;BME280;54486;51.442;6.778;2023-05-23T06:03:48;101664.13;;;15.10;97.21
67697;BME280;54486;51.442;6.778;2023-05-23T06:06:19;101660.59;;;15.10;96.25
67697;BME280;54486;51.442;6.778;2023-05-23T06:08:46;101660.69;;;15.05;96.04
67697;BME280;54486;51.442;6.778;2023-05-23T06:11:13;101660.69;;;15.05;96.47
67697;BME280;54486;51.442;6.778;2023-05-23T06:13:40;101657.09;;;15.12;96.27
67697;BME280;54486;51.442;6.778;2023-05-23T06:16:07;101665.78;;;15.17;96.55
67697;BME280;54486;51.442;6.778;2023-05-23T06:18:35;101653.44;;;15.22;96.01
67697;BME280;54486;51.442;6.778;2023-05-23T06:21:02;101662.19;;;15.24;95.46
67697;BME280;54486;51.442;6.778;2023-05-23T06:23:29;101677.13;;;15.19;94.15
67697;BME280;54486;51.442;6.778;2023-05-23T06:25:57;101683.34;;;15.15;94.41
67697;BME280;54486;51.442;6.778;2023-05-23T06:28:24;101678.13;;;15.09;94.59
67697;BME280;54486;51.442;6.778;2023-05-23T06:30:52;101675.53;;;15.06;94.96
67697;BME280;54486;51.442;6.778;2023-05-23T06:33:19;101676.44;;;15.05;95.12
67697;BME280;54486;51.442;6.778;2023-05-23T06:35:46;101683.38;;;15.12;95.05
67697;BME280;54486;51.442;6.778;2023-05-23T06:38:13;101673.63;;;15.19;94.72
67697;BME280;54486;51.442;6.778;2023-05-23T06:40:43;101674.47;;;15.24;92.61
67697;BME280;54486;51.442;6.778;2023-05-23T06:43:10;101680.56;;;15.27;91.30
67697;BME280;54486;51.442;6.778;2023-05-23T06:45:37;101690.97;;;15.36;91.38
67697;BME280;54486;51.442;6.778;2023-05-23T06:48:05;101679.66;;;15.28;91.21
67697;BME280;54486;51.442;6.778;2023-05-23T06:50:32;101690.19;;;15.28;90.93
67697;BME280;54486;51.442;6.778;2023-05-23T06:52:59;101694.59;;;15.26;91.43
67697;BME280;54486;51.442;6.778;2023-05-23T06:55:26;101699.84;;;15.26;92.67
67697;BME280;54486;51.442;6.778;2023-05-23T06:57:54;101697.22;;;15.26;93.21
67697;BME280;54486;51.442;6.778;2023-05-23T07:00:20;101692.84;;;15.27;93.72
67697;BME280;54486;51.442;6.778;2023-05-23T07:02:49;101700.78;;;15.22;92.81
67697;BME280;54486;51.442;6.778;2023-05-23T07:05:16;101699.09;;;15.17;92.15
67697;BME280;54486;51.442;6.778;2023-05-23T07:07:43;101706.06;;;15.19;91.99
67697;BME280;54486;51.442;6.778;2023-05-23T07:10:10;101706.00;;;15.25;92.14
67697;BME280;54486;51.442;6.778;2023-05-23T07:12:38;101704.31;;;15.21;91.61
67697;BME280;54486;51.442;6.778;2023-05-23T07:15:05;101713.88;;;15.25;92.51
67697;BME280;54486;51.442;6.778;2023-05-23T07:17:32;101707.63;;;15.35;93.07
67697;BME280;54486;51.442;6.778;2023-05-23T07:20:00;101725.91;;;15.46;92.39
67697;BME280;54486;51.442;6.778;2023-05-23T07:22:28;101727.78;;;15.36;91.00
67697;BME280;54486;51.442;6.778;2023-05-23T07:24:55;101728.75;;;15.29;90.98
67697;BME280;54486;51.442;6.778;2023-05-23T07:27:22;101741.09;;;15.24;91.04
67697;BME280;54486;51.442;6.778;2023-05-23T07:29:49;101737.63;;;15.19;91.00
67697;BME280;54486;51.442;6.778;2023-05-23T07:32:17;101743.78;;;15.18;91.02
67697;BME280;54486;51.442;6.778;2023-05-23T07:34:43;101742.97;;;15.10;91.14
67697;BME280;54486;51.442;6.778;2023-05-23T07:37:10;101739.50;;;15.08;90.95
67697;BME280;54486;51.442;6.778;2023-05-23T07:39:37;101748.19;;;15.13;91.65
67697;BME280;54486;51.442;6.778;2023-05-23T07:42:05;101740.25;;;15.21;91.57
67697;BME280;54486;51.442;6.778;2023-05-23T07:44:32;101743.72;;;15.23;91.47
67697;BME280;54486;51.442;6.778;2023-05-23T07:46:59;101747.25;;;15.22;90.78
67697;BME280;54486;51.442;6.778;2023-05-23T07:49:27;101763.03;;;15.22;91.40
67697;BME280;54486;51.442;6.778;2023-05-23T07:51:53;101756.16;;;15.09;90.67
67697;BME280;54486;51.442;6.778;2023-05-23T07:54:20;101772.91;;;14.97;90.98
67697;BME280;54486;51.442;6.778;2023-05-23T07:56:47;101779.88;;;15.01;92.06
67697;BME280;54486;51.442;6.778;2023-05-23T07:59:15;101778.47;;;14.64;92.13
67697;BME280;54486;51.442;6.778;2023-05-23T08:01:42;101775.00;;;14.56;92.88
67697;BME280;54486;51.442;6.778;2023-05-23T08:04:10;101785.63;;;14.41;93.61
67697;BME280;54486;51.442;6.778;2023-05-23T08:06:38;101787.44;;;14.32;94.23
67697;BME280;54486;51.442;6.778;2023-05-23T08:09:22;101797.97;;;14.25;94.68
67697;BME280;54486;51.442;6.778;2023-05-23T08:11:50;101797.97;;;14.20;95.45
67697;BME280;54486;51.442;6.778;2023-05-23T08:14:17;101786.56;;;14.27;95.82
67697;BME280;54486;51.442;6.778;2023-05-23T08:16:45;101792.69;;;14.32;95.87
67697;BME280;54486;51.442;6.778;2023-05-23T08:19:11;101798.84;;;14.24;95.45
67697;BME280;54486;51.442;6.778;2023-05-23T08:21:57;101797.94;;;14.26;96.02
67697;BME280;54486;51.442;6.778;2023-05-23T08:24:23;101807.63;;;14.14;96.14
67697;BME280;54486;51.442;6.778;2023-05-23T08:26:50;101803.38;;;13.92;97.16
67697;BME280;54486;51.442;6.778;2023-05-23T08:29:17;101803.41;;;13.90;97.95
67697;BME280;54486;51.442;6.778;2023-05-23T08:31:43;101808.63;;;13.93;98.03
67697;BME280;54486;51.442;6.778;2023-05-23T08:34:13;101816.50;;;13.89;97.61
67697;BME280;54486;51.442;6.778;2023-05-23T08:36:42;101813.94;;;13.81;97.34
67697;BME280;54486;51.442;6.778;2023-05-23T08:39:08;101818.34;;;13.74;97.51
67697;BME280;54486;51.442;6.778;2023-05-23T08:41:39;101827.94;;;13.77;97.74
67697;BME280;54486;51.442;6.778;2023-05-23T08:44:06;101832.31;;;13.81;97.97
67697;BME280;54486;51.442;6.778;2023-05-23T08:46:39;101827.94;;;13.80;97.23
67697;BME280;54486;51.442;6.778;2023-05-23T08:49:09;101833.16;;;13.83;97.67
67697;BME280;54486;51.442;6.778;2023-05-23T08:51:40;101834.91;;;13.87;97.86
67697;BME280;54486;51.442;6.778;2023-05-23T08:54:09;101847.09;;;14.00;99.14
67697;BME280;54486;51.442;6.778;2023-05-23T08:56:39;101843.59;;;13.95;97.00
67697;BME280;54486;51.442;6.778;2023-05-23T08:59:08;101848.91;;;13.80;95.64
67697;BME280;54486;51.442;6.778;2023-05-23T09:01:36;101843.72;;;13.68;94.82
67697;BME280;54486;51.442;6.778;2023-05-23T09:04:05;101857.66;;;13.76;95.37
67697;BME280;54486;51.442;6.778;2023-05-23T09:06:33;101859.44;;;13.71;94.71
67697;BME280;54486;51.442;6.778;2023-05-23T09:09:01;101853.31;;;13.73;94.84
67697;BME280;54486;51.442;6.778;2023-05-23T09:11:28;101858.53;;;13.76;94.56
67697;BME280;54486;51.442;6.778;2023-05-23T09:13:55;101862.91;;;13.76;93.68
67697;BME280;54486;51.442;6.778;2023-05-23T09:16:31;101854.16;;;13.83;94.28
67697;BME280;54486;51.442;6.778;2023-05-23T09:18:58;101864.63;;;13.89;93.78
67697;BME280;54486;51.442;6.778;2023-05-23T09:21:26;101861.13;;;13.89;92.00
67697;BME280;54486;51.442;6.778;2023-05-23T09:23:53;101864.63;;;13.89;92.52
67697;BME280;54486;51.442;6.778;2023-05-23T09:26:21;101869.91;;;13.72;92.73
67697;BME280;54486;51.442;6.778;2023-05-23T09:28:48;101874.28;;;13.78;93.34
67697;BME280;54486;51.442;6.778;2023-05-23T09:31:15;101876.91;;;13.84;93.42
67697;BME280;54486;51.442;6.778;2023-05-23T09:33:45;101879.50;;;13.83;92.08
67697;BME280;54486;51.442;6.778;2023-05-23T09:36:17;101875.13;;;13.86;92.80
67697;BME280;54486;51.442;6.778;2023-05-23T09:38:45;101882.97;;;13.95;92.91
67697;BME280;54486;51.442;6.778;2023-05-23T09:41:12;101880.31;;;14.01;93.27
67697;BME280;54486;51.442;6.778;2023-05-23T09:43:49;101873.31;;;14.03;92.92
67697;BME280;54486;51.442;6.778;2023-05-23T09:46:19;101882.09;;;13.93;91.35
67697;BME280;54486;51.442;6.778;2023-05-23T09:48:47;101890.84;;;13.89;92.11
67697;BME280;54486;51.442;6.778;2023-05-23T09:51:20;101885.63;;;13.83;91.45
67697;BME280;54486;51.442;6.778;2023-05-23T09:53:49;101886.53;;;13.67;89.82
67697;BME280;54486;51.442;6.778;2023-05-23T09:56:17;101888.31;;;13.63;90.72
67697;BME280;54486;51.442;6.778;2023-05-23T09:58:47;101887.44;;;13.72;89.01
67697;BME280;54486;51.442;6.778;2023-05-23T10:01:15;101887.44;;;13.57;89.35
67697;BME280;54486;51.442;6.778;2023-05-23T10:03:49;101888.31;;;13.68;90.37
67697;BME280;54486;51.442;6.778;2023-05-23T10:06:31;101888.31;;;13.68;88.95
67697;BME280;54486;51.442;6.778;2023-05-23T10:09:03;101891.78;;;13.67;87.11
67697;BME280;54486;51.442;6.778;2023-05-23T10:14:08;101886.38;;;14.14;86.42
67697;BME280;54486;51.442;6.778;2023-05-23T10:16:52;101887.19;;;14.39;83.07
67697;BME280;54486;51.442;6.778;2023-05-23T10:19:26;101883.56;;;14.61;81.12
67697;BME280;54486;51.442;6.778;2023-05-23T10:22:06;101889.53;;;14.86;78.89
67697;BME280;54486;51.442;6.778;2023-05-23T10:24:35;101881.53;;;15.02;75.72
67697;BME280;54486;51.442;6.778;2023-05-23T10:27:03;101884.78;;;15.28;75.11
67697;BME280;54486;51.442;6.778;2023-05-23T10:29:30;101884.63;;;15.47;75.48
67697;BME280;54486;51.442;6.778;2023-05-23T10:31:58;101873.09;;;15.61;75.86
67697;BME280;54486;51.442;6.778;2023-05-23T10:34:43;101886.38;;;15.45;72.42
67697;BME280;54486;51.442;6.778;2023-05-23T10:37:22;101887.25;;;15.47;74.86
67697;BME280;54486;51.442;6.778;2023-05-23T10:39:54;101886.50;;;15.32;74.33
67697;BME280;54486;51.442;6.778;2023-05-23T10:45:20;101891.81;;;15.26;73.63
67697;BME280;54486;51.442;6.778;2023-05-23T10:47:51;101891.81;;;15.26;74.20
67697;BME280;54486;51.442;6.778;2023-05-23T10:50:35;101893.69;;;15.15;75.39
67697;BME280;54486;51.442;6.778;2023-05-23T10:53:08;101898.91;;;15.18;74.85
67697;BME280;54486;51.442;6.778;2023-05-23T10:55:37;101900.59;;;15.25;73.73
67697;BME280;54486;51.442;6.778;2023-05-23T10:58:20;101907.47;;;15.38;77.19
67697;BME280;54486;51.442;6.778;2023-05-23T11:03:18;101911.06;;;15.31;71.28
67697;BME280;54486;51.442;6.778;2023-05-23T11:05:55;101916.34;;;15.25;71.91
67697;BME280;54486;51.442;6.778;2023-05-23T11:08:23;101922.59;;;15.18;72.23
67697;BME280;54486;51.442;6.778;2023-05-23T11:11:05;101925.25;;;15.09;72.93
67697;BME280;54486;51.442;6.778;2023-05-23T11:13:57;101929.53;;;15.24;72.74
67697;BME280;54486;51.442;6.778;2023-05-23T11:16:29;101923.22;;;15.51;69.75
67697;BME280;54486;51.442;6.778;2023-05-23T11:22:01;101910.31;;;16.07;70.52
67697;BME280;54486;51.442;6.778;2023-05-23T11:24:49;101912.28;;;15.87;66.80
67697;BME280;54486;51.442;6.778;2023-05-23T11:27:30;101920.31;;;15.75;67.99
67697;BME280;54486;51.442;6.778;2023-05-23T11:32:32;101927.66;;;15.35;70.52
67697;BME280;54486;51.442;6.778;2023-05-23T11:35:05;101919.84;;;15.30;72.68
67697;BME280;54486;51.442;6.778;2023-05-23T11:37:33;101916.22;;;15.44;73.74
67697;BME280;54486;51.442;6.778;2023-05-23T11:40:33;101924.13;;;15.42;72.42
67697;BME280;54486;51.442;6.778;2023-05-23T11:43:05;101926.78;;;15.41;70.58
67697;BME280;54486;51.442;6.778;2023-05-23T11:45:34;101921.38;;;15.59;69.92
67697;BME280;54486;51.442;6.778;2023-05-23T11:48:09;101924.69;;;15.79;68.23
67697;BME280;54486;51.442;6.778;2023-05-23T11:50:51;101920.78;;;16.13;69.09
67697;BME280;54486;51.442;6.778;2023-05-23T11:53:20;101926.84;;;16.20;66.48
67697;BME280;54486;51.442;6.778;2023-05-23T11:55:49;101926.13;;;16.07;66.75
67697;BME280;54486;51.442;6.778;2023-05-23T11:58:20;101928.75;;;16.07;67.36
67697;BME280;54486;51.442;6.778;2023-05-23T12:00:48;101925.19;;;16.11;65.94
67697;BME280;54486;51.442;6.778;2023-05-23T12:03:15;101927.72;;;16.20;61.95
67697;BME280;54486;51.442;6.778;2023-05-23T12:05:43;101923.88;;;16.46;63.26
67697;BME280;54486;51.442;6.778;2023-05-23T12:08:11;101925.44;;;16.62;62.01
67697;BME280;54486;51.442;6.778;2023-05-23T12:10:51;101928.66;;;16.83;62.75
67697;BME280;54486;51.442;6.778;2023-05-23T12:13:23;101933.72;;;16.97;63.80
67697;BME280;54486;51.442;6.778;2023-05-23T12:15:58;101925.09;;;16.86;59.88
67697;BME280;54486;51.442;6.778;2023-05-23T12:18:28;101925.19;;;16.80;60.95
67697;BME280;54486;51.442;6.778;2023-05-23T12:21:02;101931.25;;;16.85;61.49
67697;BME280;54486;51.442;6.778;2023-05-23T12:23:32;101926.31;;;16.62;60.99
67697;BME280;54486;51.442;6.778;2023-05-23T12:26:03;101932.28;;;16.75;61.97
67697;BME280;54486;51.442;6.778;2023-05-23T12:28:40;101933.75;;;16.94;60.71
67697;BME280;54486;51.442;6.778;2023-05-23T12:31:16;101930.91;;;17.08;61.44
67697;BME280;54486;51.442;6.778;2023-05-23T12:33:45;101931.59;;;17.19;58.96
67697;BME280;54486;51.442;6.778;2023-05-23T12:36:20;101930.41;;;17.38;58.91
67697;BME280;54486;51.442;6.778;2023-05-23T12:38:48;101928.44;;;17.49;57.00
67697;BME280;54486;51.442;6.778;2023-05-23T12:41:19;101929.25;;;17.53;56.60
67697;BME280;54486;51.442;6.778;2023-05-23T12:43:52;101929.00;;;17.69;56.13
67697;BME280;54486;51.442;6.778;2023-05-23T12:46:24;101925.13;;;17.87;55.30
67697;BME280;54486;51.442;6.778;2023-05-23T12:48:52;101935.66;;;17.90;55.46
67697;BME280;54486;51.442;6.778;2023-05-23T12:51:20;101915.56;;;17.83;52.98
67697;BME280;54486;51.442;6.778;2023-05-23T12:53:48;101923.47;;;17.83;54.93
67697;BME280;54486;51.442;6.778;2023-05-23T12:56:15;101922.28;;;17.97;54.96
67697;BME280;54486;51.442;6.778;2023-05-23T12:58:42;101926.59;;;17.56;53.33
67697;BME280;54486;51.442;6.778;2023-05-23T13:01:09;101923.59;;;17.77;54.37
67697;BME280;54486;51.442;6.778;2023-05-23T13:03:37;101918.75;;;17.50;54.58
67697;BME280;54486;51.442;6.778;2023-05-23T13:06:05;101931.00;;;17.54;56.30
67697;BME280;54486;51.442;6.778;2023-05-23T13:08:32;101920.47;;;17.54;57.13
67697;BME280;54486;51.442;6.778;2023-05-23T13:10:59;101917.94;;;17.48;55.84
67697;BME280;54486;51.442;6.778;2023-05-23T13:13:26;101917.13;;;17.91;57.27
67697;BME280;54486;51.442;6.778;2023-05-23T13:15:53;101909.06;;;17.99;53.90
67697;BME280;54486;51.442;6.778;2023-05-23T13:18:20;101919.91;;;17.84;53.05